sensor_id;sensor_type;location;lat;lon;timestamp;pressure;altitude;pressure_sealevel;temperature;humidity
18275;BME280;19470;49.322;7.218;2023-11-22T00:01:15;99238.00;;;13.73;80.13
18275;BME280;19470;49.322;7.218;2023-11-22T00:03:42;99239.75;;;13.24;80.98
18275;BME280;19470;49.322;7.218;2023-11-22T00:06:08;99237.31;;;13.39;81.27
18275;BME280;19470;49.322;7.218;2023-11-22T00:08:35;99237.50;;;13.76;77.37
18275;BME280;19470;49.322;7.218;2023-11-22T00:11:03;99234.16;;;13.64;77.31
18275;BME280;19470;49.322;7.218;2023-11-22T00:13:30;99237.66;;;13.09;81.37
18275;BME280;19470;49.322;7.218;2023-11-22T00:15:57;99246.78;;;13.52;79.68
18275;BME280;19470;49.322;7.218;2023-11-22T00:18:23;99250.25;;;12.80;81.18
18275;BME280;19470;49.322;7.218;2023-11-22T00:20:51;99248.38;;;13.14;79.91
18275;BME280;19470;49.322;7.218;2023-11-22T00:23:17;99262.00;;;13.01;79.19
18275;BME280;19470;49.322;7.218;2023-11-22T00:25:44;99266.19;;;13.30;79.32
18275;BME280;19470;49.322;7.218;2023-11-22T00:28:12;99264.97;;;12.54;81.34
18275;BME280;19470;49.322;7.218;2023-11-22T00:30:38;99273.03;;;12.93;78.78
18275;BME280;19470;49.322;7.218;2023-11-22T00:33:05;99276.97;;;12.73;80.23
18275;BME280;19470;49.322;7.218;2023-11-22T00:35:32;99277.03;;;12.45;81.83
18275;BME280;19470;49.322;7.218;2023-11-22T00:37:58;99273.03;;;12.93;77.77
18275;BME280;19470;49.322;7.218;2023-11-22T00:40:25;99284.81;;;12.35;81.35
18275;BME280;19470;49.322;7.218;2023-11-22T00:42:51;99274.84;;;12.42;80.02
18275;BME280;19470;49.322;7.218;2023-11-22T00:45:19;99277.63;;;12.64;79.79
18275;BME280;19470;49.322;7.218;2023-11-22T00:47:46;99290.03;;;11.89;81.41
18275;BME280;19470;49.322;7.218;2023-11-22T00:50:13;99297.13;;;12.12;79.72
18275;BME280;19470;49.322;7.218;2023-11-22T00:52:39;99295.34;;;12.92;76.26
18275;BME280;19470;49.322;7.218;2023-11-22T00:55:10;99307.47;;;12.54;76.73
18275;BME280;19470;49.322;7.218;2023-11-22T00:57:36;99312.19;;;12.35;76.41
18275;BME280;19470;49.322;7.218;2023-11-22T01:00:04;99311.78;;;12.89;74.84
18275;BME280;19470;49.322;7.218;2023-11-22T01:02:34;99312.44;;;12.34;76.67
18275;BME280;19470;49.322;7.218;2023-11-22T01:05:04;99294.66;;;12.51;75.31
18275;BME280;19470;49.322;7.218;2023-11-22T01:07:32;99304.06;;;12.42;74.38
18275;BME280;19470;49.322;7.218;2023-11-22T01:09:58;99296.19;;;12.47;74.40
18275;BME280;19470;49.322;7.218;2023-11-22T01:12:25;99298.44;;;12.38;74.19
18275;BME280;19470;49.322;7.218;2023-11-22T01:14:52;99297.84;;;12.36;75.03
18275;BME280;19470;49.322;7.218;2023-11-22T01:17:18;99307.66;;;12.36;74.61
18275;BME280;19470;49.322;7.218;2023-11-22T01:19:46;99310.38;;;12.52;72.95
18275;BME280;19470;49.322;7.218;2023-11-22T01:22:12;99314.13;;;11.99;75.27
18275;BME280;19470;49.322;7.218;2023-11-22T01:24:39;99315.88;;;12.34;74.23
18275;BME280;19470;49.322;7.218;2023-11-22T01:27:05;99312.50;;;12.39;73.96
18275;BME280;19470;49.322;7.218;2023-11-22T01:29:32;99317.34;;;12.42;72.30
18275;BME280;19470;49.322;7.218;2023-11-22T01:31:59;99324.38;;;12.19;73.37
18275;BME280;19470;49.322;7.218;2023-11-22T01:34:26;99319.81;;;11.09;76.77
18275;BME280;19470;49.322;7.218;2023-11-22T01:36:55;99329.63;;;11.56;75.68
18275;BME280;19470;49.322;7.218;2023-11-22T01:39:22;99335.06;;;11.37;74.77
18275;BME280;19470;49.322;7.218;2023-11-22T01:41:48;99335.91;;;12.13;72.16
18275;BME280;19470;49.322;7.218;2023-11-22T01:44:15;99325.53;;;12.12;71.28
18275;BME280;19470;49.322;7.218;2023-11-22T01:46:43;99324.44;;;11.96;71.68
18275;BME280;19470;49.322;7.218;2023-11-22T01:49:10;99325.38;;;12.18;71.37
18275;BME280;19470;49.322;7.218;2023-11-22T01:51:37;99328.44;;;12.39;70.34
18275;BME280;19470;49.322;7.218;2023-11-22T01:54:06;99329.50;;;12.38;69.46
18275;BME280;19470;49.322;7.218;2023-11-22T01:56:36;99341.41;;;11.60;73.10
18275;BME280;19470;49.322;7.218;2023-11-22T01:59:03;99344.03;;;11.71;73.39
18275;BME280;19470;49.322;7.218;2023-11-22T02:01:30;99345.50;;;12.14;71.10
18275;BME280;19470;49.322;7.218;2023-11-22T02:03:57;99354.53;;;11.78;72.43
18275;BME280;19470;49.322;7.218;2023-11-22T02:06:24;99353.25;;;11.81;72.47
18275;BME280;19470;49.322;7.218;2023-11-22T02:08:51;99361.13;;;11.75;73.19
18275;BME280;19470;49.322;7.218;2023-11-22T02:11:19;99364.81;;;11.74;72.37
18275;BME280;19470;49.322;7.218;2023-11-22T02:13:47;99354.19;;;11.74;72.87
18275;BME280;19470;49.322;7.218;2023-11-22T02:16:14;99348.09;;;11.74;71.37
18275;BME280;19470;49.322;7.218;2023-11-22T02:18:40;99352.38;;;11.87;71.28
18275;BME280;19470;49.322;7.218;2023-11-22T02:21:07;99346.69;;;11.01;74.37
18275;BME280;19470;49.322;7.218;2023-11-22T02:23:35;99357.88;;;11.26;73.67
18275;BME280;19470;49.322;7.218;2023-11-22T02:26:01;99353.97;;;11.41;73.01
18275;BME280;19470;49.322;7.218;2023-11-22T02:28:28;99352.72;;;11.43;71.49
18275;BME280;19470;49.322;7.218;2023-11-22T02:30:54;99350.19;;;11.25;72.02
18275;BME280;19470;49.322;7.218;2023-11-22T02:33:21;99358.91;;;11.14;71.58
18275;BME280;19470;49.322;7.218;2023-11-22T02:35:47;99369.69;;;10.89;73.25
18275;BME280;19470;49.322;7.218;2023-11-22T02:38:15;99382.31;;;10.75;72.76
18275;BME280;19470;49.322;7.218;2023-11-22T02:40:44;99369.94;;;10.99;72.64
18275;BME280;19470;49.322;7.218;2023-11-22T02:43:11;99380.09;;;11.02;71.08
18275;BME280;19470;49.322;7.218;2023-11-22T02:45:37;99383.28;;;10.62;71.91
18275;BME280;19470;49.322;7.218;2023-11-22T02:48:04;99388.06;;;11.02;71.98
18275;BME280;19470;49.322;7.218;2023-11-22T02:50:34;99388.41;;;10.75;72.60
18275;BME280;19470;49.322;7.218;2023-11-22T02:53:02;99383.56;;;10.72;73.16
18275;BME280;19470;49.322;7.218;2023-11-22T02:55:28;99399.09;;;10.99;71.32
18275;BME280;19470;49.322;7.218;2023-11-22T02:57:56;99386.34;;;11.19;70.97
18275;BME280;19470;49.322;7.218;2023-11-22T03:00:23;99387.69;;;11.10;70.85
18275;BME280;19470;49.322;7.218;2023-11-22T03:02:50;99387.88;;;11.39;69.88
18275;BME280;19470;49.322;7.218;2023-11-22T03:05:19;99394.16;;;11.14;70.77
18275;BME280;19470;49.322;7.218;2023-11-22T03:07:46;99398.84;;;10.89;71.20
18275;BME280;19470;49.322;7.218;2023-11-22T03:10:13;99407.66;;;11.01;70.59
18275;BME280;19470;49.322;7.218;2023-11-22T03:12:39;99414.09;;;11.05;70.56
18275;BME280;19470;49.322;7.218;2023-11-22T03:15:09;99422.16;;;11.10;70.73
18275;BME280;19470;49.322;7.218;2023-11-22T03:17:36;99435.94;;;10.89;72.02
18275;BME280;19470;49.322;7.218;2023-11-22T03:20:05;99434.63;;;10.80;71.85
18275;BME280;19470;49.322;7.218;2023-11-22T03:22:36;99434.72;;;11.03;71.53
18275;BME280;19470;49.322;7.218;2023-11-22T03:25:03;99428.94;;;10.64;72.05
18275;BME280;19470;49.322;7.218;2023-11-22T03:27:30;99440.44;;;10.88;70.88
18275;BME280;19470;49.322;7.218;2023-11-22T03:29:56;99448.91;;;10.79;72.66
18275;BME280;19470;49.322;7.218;2023-11-22T03:32:25;99457.84;;;10.29;73.33
18275;BME280;19470;49.322;7.218;2023-11-22T03:34:51;99469.09;;;10.43;74.42
18275;BME280;19470;49.322;7.218;2023-11-22T03:37:18;99466.03;;;10.94;72.02
18275;BME280;19470;49.322;7.218;2023-11-22T03:39:44;99472.75;;;10.23;74.54
18275;BME280;19470;49.322;7.218;2023-11-22T03:42:13;99480.19;;;10.70;72.60
18275;BME280;19470;49.322;7.218;2023-11-22T03:44:40;99477.91;;;10.73;71.74
18275;BME280;19470;49.322;7.218;2023-11-22T03:47:06;99484.31;;;11.14;69.84
18275;BME280;19470;49.322;7.218;2023-11-22T03:49:34;99485.34;;;11.13;70.24
18275;BME280;19470;49.322;7.218;2023-11-22T03:52:01;99486.94;;;11.14;69.65
18275;BME280;19470;49.322;7.218;2023-11-22T03:54:27;99498.34;;;11.03;70.58
18275;BME280;19470;49.322;7.218;2023-11-22T03:56:54;99515.16;;;10.79;71.46
18275;BME280;19470;49.322;7.218;2023-11-22T03:59:21;99510.38;;;10.69;72.37
18275;BME280;19470;49.322;7.218;2023-11-22T04:01:49;99507.97;;;11.27;70.07
18275;BME280;19470;49.322;7.218;2023-11-22T04:04:16;99512.16;;;11.35;70.17
18275;BME280;19470;49.322;7.218;2023-11-22T04:06:44;99528.72;;;11.00;70.72
18275;BME280;19470;49.322;7.218;2023-11-22T04:09:10;99522.63;;;10.82;71.58
18275;BME280;19470;49.322;7.218;2023-11-22T04:11:37;99521.63;;;10.46;73.19
18275;BME280;19470;49.322;7.218;2023-11-22T04:14:04;99513.97;;;10.93;71.19
18275;BME280;19470;49.322;7.218;2023-11-22T04:16:30;99503.78;;;11.50;69.11
18275;BME280;19470;49.322;7.218;2023-11-22T04:18:57;99506.13;;;11.70;68.27
18275;BME280;19470;49.322;7.218;2023-11-22T04:21:23;99521.91;;;10.93;69.48
18275;BME280;19470;49.322;7.218;2023-11-22T04:23:52;99525.16;;;11.25;69.17
18275;BME280;19470;49.322;7.218;2023-11-22T04:26:18;99533.25;;;10.82;70.40
18275;BME280;19470;49.322;7.218;2023-11-22T04:28:45;99530.91;;;10.73;70.63
18275;BME280;19470;49.322;7.218;2023-11-22T04:31:12;99533.69;;;10.97;69.45
18275;BME280;19470;49.322;7.218;2023-11-22T04:33:38;99537.00;;;10.92;69.81
18275;BME280;19470;49.322;7.218;2023-11-22T04:36:05;99538.75;;;10.43;71.03
18275;BME280;19470;49.322;7.218;2023-11-22T04:38:32;99541.66;;;10.60;70.34
18275;BME280;19470;49.322;7.218;2023-11-22T04:41:00;99542.47;;;10.79;69.94
18275;BME280;19470;49.322;7.218;2023-11-22T04:43:27;99542.81;;;10.46;70.97
18275;BME280;19470;49.322;7.218;2023-11-22T04:45:53;99549.75;;;10.22;71.16
18275;BME280;19470;49.322;7.218;2023-11-22T04:48:20;99556.72;;;10.96;69.46
18275;BME280;19470;49.322;7.218;2023-11-22T04:50:47;99561.81;;;10.61;70.83
18275;BME280;19470;49.322;7.218;2023-11-22T04:53:13;99551.47;;;11.08;68.66
18275;BME280;19470;49.322;7.218;2023-11-22T04:55:40;99556.50;;;10.98;68.15
18275;BME280;19470;49.322;7.218;2023-11-22T04:58:07;99565.19;;;10.68;69.53
18275;BME280;19470;49.322;7.218;2023-11-22T05:00:34;99568.72;;;10.81;68.86
18275;BME280;19470;49.322;7.218;2023-11-22T05:03:00;99569.16;;;10.59;69.97
18275;BME280;19470;49.322;7.218;2023-11-22T05:05:27;99576.38;;;11.07;67.21
18275;BME280;19470;49.322;7.218;2023-11-22T05:11:15;99584.91;;;10.72;67.66
18275;BME280;19470;49.322;7.218;2023-11-22T05:13:43;99584.09;;;10.90;67.15
18275;BME280;19470;49.322;7.218;2023-11-22T05:16:10;99594.50;;;10.92;68.68
18275;BME280;19470;49.322;7.218;2023-11-22T05:18:36;99596.44;;;11.33;66.02
18275;BME280;19470;49.322;7.218;2023-11-22T05:21:03;99594.53;;;11.22;66.27
18275;BME280;19470;49.322;7.218;2023-11-22T05:23:29;99606.44;;;10.83;67.12
18275;BME280;19470;49.322;7.218;2023-11-22T05:25:56;99611.78;;;10.76;67.64
18275;BME280;19470;49.322;7.218;2023-11-22T05:28:23;99615.81;;;10.60;67.16
18275;BME280;19470;49.322;7.218;2023-11-22T05:30:50;99618.66;;;10.40;68.45
18275;BME280;19470;49.322;7.218;2023-11-22T05:33:17;99612.56;;;10.58;68.47
18275;BME280;19470;49.322;7.218;2023-11-22T05:35:43;99613.31;;;10.65;67.80
18275;BME280;19470;49.322;7.218;2023-11-22T05:38:10;99625.19;;;10.38;67.31
18275;BME280;19470;49.322;7.218;2023-11-22T05:40:37;99619.22;;;9.86;67.83
18275;BME280;19470;49.322;7.218;2023-11-22T05:43:04;99616.16;;;10.45;67.01
18275;BME280;19470;49.322;7.218;2023-11-22T05:45:30;99621.69;;;10.12;68.16
18275;BME280;19470;49.322;7.218;2023-11-22T05:47:58;99610.06;;;10.45;66.39
18275;BME280;19470;49.322;7.218;2023-11-22T05:50:24;99602.25;;;10.50;66.01
18275;BME280;19470;49.322;7.218;2023-11-22T05:52:51;99596.44;;;10.16;66.33
18275;BME280;19470;49.322;7.218;2023-11-22T05:55:18;99596.66;;;10.40;66.61
18275;BME280;19470;49.322;7.218;2023-11-22T05:57:44;99598.22;;;9.91;67.94
18275;BME280;19470;49.322;7.218;2023-11-22T06:00:11;99604.28;;;9.98;67.66
18275;BME280;19470;49.322;7.218;2023-11-22T06:02:39;99614.63;;;9.75;69.66
18275;BME280;19470;49.322;7.218;2023-11-22T06:05:08;99618.31;;;9.67;69.59
18275;BME280;19470;49.322;7.218;2023-11-22T06:07:34;99626.94;;;9.56;70.87
18275;BME280;19470;49.322;7.218;2023-11-22T06:10:01;99632.59;;;9.59;69.94
18275;BME280;19470;49.322;7.218;2023-11-22T06:12:28;99635.19;;;9.28;70.29
18275;BME280;19470;49.322;7.218;2023-11-22T06:14:54;99648.97;;;9.43;71.16
18275;BME280;19470;49.322;7.218;2023-11-22T06:17:21;99639.44;;;9.73;68.84
18275;BME280;19470;49.322;7.218;2023-11-22T06:19:48;99646.09;;;10.14;68.04
18275;BME280;19470;49.322;7.218;2023-11-22T06:22:16;99651.75;;;9.93;68.12
18275;BME280;19470;49.322;7.218;2023-11-22T06:24:42;99647.84;;;9.95;68.64
18275;BME280;19470;49.322;7.218;2023-11-22T06:27:09;99644.16;;;10.03;67.87
18275;BME280;19470;49.322;7.218;2023-11-22T06:29:35;99656.25;;;9.47;68.58
18275;BME280;19470;49.322;7.218;2023-11-22T06:32:02;99686.94;;;8.64;74.23
18275;BME280;19470;49.322;7.218;2023-11-22T06:34:29;99679.59;;;9.57;69.90
18275;BME280;19470;49.322;7.218;2023-11-22T06:36:55;99675.69;;;9.66;69.15
18275;BME280;19470;49.322;7.218;2023-11-22T06:39:24;99688.28;;;9.19;71.01
18275;BME280;19470;49.322;7.218;2023-11-22T06:41:50;99682.84;;;8.22;75.05
18275;BME280;19470;49.322;7.218;2023-11-22T06:44:17;99683.50;;;8.77;73.87
18275;BME280;19470;49.322;7.218;2023-11-22T06:46:44;99692.44;;;8.76;73.72
18275;BME280;19470;49.322;7.218;2023-11-22T06:49:10;99688.59;;;8.52;75.99
18275;BME280;19470;49.322;7.218;2023-11-22T06:51:37;99689.16;;;8.60;76.09
18275;BME280;19470;49.322;7.218;2023-11-22T06:54:04;99682.44;;;8.84;73.87
18275;BME280;19470;49.322;7.218;2023-11-22T06:56:33;99694.44;;;8.60;74.17
18275;BME280;19470;49.322;7.218;2023-11-22T06:58:59;99693.84;;;8.58;74.50
18275;BME280;19470;49.322;7.218;2023-11-22T07:01:26;99693.25;;;8.43;74.97
18275;BME280;19470;49.322;7.218;2023-11-22T07:03:52;99691.72;;;7.94;78.69
18275;BME280;19470;49.322;7.218;2023-11-22T07:06:19;99694.03;;;8.83;74.75
18275;BME280;19470;49.322;7.218;2023-11-22T07:08:47;99687.97;;;8.56;77.33
18275;BME280;19470;49.322;7.218;2023-11-22T07:11:21;99695.41;;;9.19;73.09
18275;BME280;19470;49.322;7.218;2023-11-22T07:13:49;99699.91;;;8.32;74.84
18275;BME280;19470;49.322;7.218;2023-11-22T07:16:17;99697.91;;;8.41;74.04
18275;BME280;19470;49.322;7.218;2023-11-22T07:18:44;99690.81;;;8.61;72.56
18275;BME280;19470;49.322;7.218;2023-11-22T07:21:11;99699.59;;;7.26;78.36
18275;BME280;19470;49.322;7.218;2023-11-22T07:23:38;99707.28;;;7.76;75.95
18275;BME280;19470;49.322;7.218;2023-11-22T07:26:04;99717.53;;;8.12;75.06
18275;BME280;19470;49.322;7.218;2023-11-22T07:28:31;99716.31;;;8.01;75.57
18275;BME280;19470;49.322;7.218;2023-11-22T07:30:59;99725.84;;;8.02;75.11
18275;BME280;19470;49.322;7.218;2023-11-22T07:33:27;99722.34;;;7.82;76.90
18275;BME280;19470;49.322;7.218;2023-11-22T07:35:53;99726.53;;;7.69;76.81
18275;BME280;19470;49.322;7.218;2023-11-22T07:38:20;99728.28;;;8.10;75.52
18275;BME280;19470;49.322;7.218;2023-11-22T07:40:46;99719.97;;;8.13;74.75
18275;BME280;19470;49.322;7.218;2023-11-22T07:43:13;99716.75;;;8.25;74.80
18275;BME280;19470;49.322;7.218;2023-11-22T07:45:39;99704.34;;;8.18;74.13
18275;BME280;19470;49.322;7.218;2023-11-22T07:48:07;99712.34;;;8.52;73.21
18275;BME280;19470;49.322;7.218;2023-11-22T07:50:37;99706.03;;;8.46;73.78
18275;BME280;19470;49.322;7.218;2023-11-22T07:53:04;99709.31;;;8.61;72.59
18275;BME280;19470;49.322;7.218;2023-11-22T07:55:34;99717.41;;;8.73;72.32
18275;BME280;19470;49.322;7.218;2023-11-22T07:58:02;99712.56;;;8.57;73.64
18275;BME280;19470;49.322;7.218;2023-11-22T08:00:31;99712.06;;;8.27;74.95
18275;BME280;19470;49.322;7.218;2023-11-22T08:02:59;99720.66;;;8.82;73.15
18275;BME280;19470;49.322;7.218;2023-11-22T08:05:29;99710.09;;;8.95;73.37
18275;BME280;19470;49.322;7.218;2023-11-22T08:07:59;99701.91;;;9.16;73.68
18275;BME280;19470;49.322;7.218;2023-11-22T08:10:27;99700.13;;;9.62;72.88
18275;BME280;19470;49.322;7.218;2023-11-22T08:12:53;99702.81;;;9.55;71.73
18275;BME280;19470;49.322;7.218;2023-11-22T08:15:20;99716.44;;;9.45;72.09
18275;BME280;19470;49.322;7.218;2023-11-22T08:17:47;99706.47;;;9.54;70.90
18275;BME280;19470;49.322;7.218;2023-11-22T08:20:13;99718.13;;;9.27;72.43
18275;BME280;19470;49.322;7.218;2023-11-22T08:22:44;99727.56;;;10.12;69.92
18275;BME280;19470;49.322;7.218;2023-11-22T08:25:12;99732.13;;;10.37;68.92
18275;BME280;19470;49.322;7.218;2023-11-22T08:27:39;99740.53;;;10.84;67.46
18275;BME280;19470;49.322;7.218;2023-11-22T08:30:07;99737.63;;;12.02;63.63
18275;BME280;19470;49.322;7.218;2023-11-22T08:32:39;99740.22;;;11.17;63.96
18275;BME280;19470;49.322;7.218;2023-11-22T08:35:07;99748.53;;;11.02;61.64
18275;BME280;19470;49.322;7.218;2023-11-22T08:37:34;99750.50;;;12.59;59.51
18275;BME280;19470;49.322;7.218;2023-11-22T08:40:06;99765.41;;;11.99;59.84
18275;BME280;19470;49.322;7.218;2023-11-22T08:42:33;99766.78;;;12.20;61.28
18275;BME280;19470;49.322;7.218;2023-11-22T08:44:59;99773.97;;;12.32;56.80
18275;BME280;19470;49.322;7.218;2023-11-22T08:47:26;99775.06;;;13.19;52.26
18275;BME280;19470;49.322;7.218;2023-11-22T08:49:53;99773.75;;;13.69;50.14
18275;BME280;19470;49.322;7.218;2023-11-22T08:52:19;99780.53;;;12.59;54.03
18275;BME280;19470;49.322;7.218;2023-11-22T08:54:46;99775.56;;;13.28;51.53
18275;BME280;19470;49.322;7.218;2023-11-22T08:57:14;99782.03;;;13.44;50.90
18275;BME280;19470;49.322;7.218;2023-11-22T08:59:40;99768.84;;;13.25;51.75
18275;BME280;19470;49.322;7.218;2023-11-22T09:02:07;99774.59;;;12.45;53.15
18275;BME280;19470;49.322;7.218;2023-11-22T09:04:35;99774.53;;;12.52;52.72
18275;BME280;19470;49.322;7.218;2023-11-22T09:07:03;99765.22;;;12.96;51.03
18275;BME280;19470;49.322;7.218;2023-11-22T09:09:31;99759.81;;;13.90;48.25
18275;BME280;19470;49.322;7.218;2023-11-22T09:11:57;99753.53;;;12.74;49.55
18275;BME280;19470;49.322;7.218;2023-11-22T09:14:26;99752.72;;;12.20;50.63
18275;BME280;19470;49.322;7.218;2023-11-22T09:16:53;99740.88;;;13.23;49.24
18275;BME280;19470;49.322;7.218;2023-11-22T09:19:20;99734.34;;;13.54;47.93
18275;BME280;19470;49.322;7.218;2023-11-22T09:21:47;99729.81;;;13.54;48.02
18275;BME280;19470;49.322;7.218;2023-11-22T09:24:13;99725.91;;;13.86;48.10
18275;BME280;19470;49.322;7.218;2023-11-22T09:26:40;99722.72;;;14.29;46.62
18275;BME280;19470;49.322;7.218;2023-11-22T09:29:08;99729.13;;;13.88;49.46
18275;BME280;19470;49.322;7.218;2023-11-22T09:31:36;99728.53;;;14.43;47.50
18275;BME280;19470;49.322;7.218;2023-11-22T09:34:04;99733.03;;;14.71;47.38
18275;BME280;19470;49.322;7.218;2023-11-22T09:36:30;99741.53;;;13.42;48.62
18275;BME280;19470;49.322;7.218;2023-11-22T09:38:59;99739.41;;;14.24;47.01
18275;BME280;19470;49.322;7.218;2023-11-22T09:41:28;99752.63;;;12.92;49.69
18275;BME280;19470;49.322;7.218;2023-11-22T09:43:54;99762.56;;;12.96;48.50
18275;BME280;19470;49.322;7.218;2023-11-22T09:46:22;99755.31;;;13.50;46.65
18275;BME280;19470;49.322;7.218;2023-11-22T09:48:51;99767.09;;;13.19;48.83
18275;BME280;19470;49.322;7.218;2023-11-22T09:51:23;99775.53;;;11.72;50.69
18275;BME280;19470;49.322;7.218;2023-11-22T09:53:53;99766.50;;;13.17;48.59
18275;BME280;19470;49.322;7.218;2023-11-22T09:56:22;99770.81;;;13.94;47.11
18275;BME280;19470;49.322;7.218;2023-11-22T09:58:51;99781.19;;;13.67;45.75
18275;BME280;19470;49.322;7.218;2023-11-22T10:01:20;99784.31;;;14.32;45.96
18275;BME280;19470;49.322;7.218;2023-11-22T10:03:47;99771.69;;;13.71;45.04
18275;BME280;19470;49.322;7.218;2023-11-22T10:06:15;99775.59;;;15.16;43.29
18275;BME280;19470;49.322;7.218;2023-11-22T10:08:42;99795.97;;;14.72;43.86
18275;BME280;19470;49.322;7.218;2023-11-22T10:11:12;99796.69;;;15.18;43.76
18275;BME280;19470;49.322;7.218;2023-11-22T10:13:41;99809.44;;;16.64;41.85
18275;BME280;19470;49.322;7.218;2023-11-22T10:16:10;99800.03;;;17.21;40.01
18275;BME280;19470;49.322;7.218;2023-11-22T10:18:39;99797.09;;;18.48;37.66
18275;BME280;19470;49.322;7.218;2023-11-22T10:21:20;99792.69;;;17.96;37.97
18275;BME280;19470;49.322;7.218;2023-11-22T10:23:47;99790.63;;;19.51;36.17
18275;BME280;19470;49.322;7.218;2023-11-22T10:26:14;99812.66;;;16.12;40.00
18275;BME280;19470;49.322;7.218;2023-11-22T10:28:41;99796.91;;;18.70;37.82
18275;BME280;19470;49.322;7.218;2023-11-22T10:31:08;99793.66;;;19.03;35.84
18275;BME280;19470;49.322;7.218;2023-11-22T10:33:39;99799.44;;;20.31;33.88
18275;BME280;19470;49.322;7.218;2023-11-22T10:36:07;99797.69;;;19.21;35.94
18275;BME280;19470;49.322;7.218;2023-11-22T10:38:36;99793.94;;;18.71;37.04
18275;BME280;19470;49.322;7.218;2023-11-22T10:41:03;99784.84;;;17.31;39.51
18275;BME280;19470;49.322;7.218;2023-11-22T10:43:30;99770.13;;;19.75;36.03
18275;BME280;19470;49.322;7.218;2023-11-22T10:45:58;99786.63;;;16.83;40.14
18275;BME280;19470;49.322;7.218;2023-11-22T10:48:26;99792.41;;;15.17;38.95
18275;BME280;19470;49.322;7.218;2023-11-22T10:50:55;99802.19;;;16.59;37.54
18275;BME280;19470;49.322;7.218;2023-11-22T10:53:29;99803.78;;;17.67;35.37
18275;BME280;19470;49.322;7.218;2023-11-22T10:56:03;99818.63;;;16.19;37.52
18275;BME280;19470;49.322;7.218;2023-11-22T10:58:32;99811.75;;;16.55;37.50
18275;BME280;19470;49.322;7.218;2023-11-22T11:01:00;99816.94;;;15.69;39.65
18275;BME280;19470;49.322;7.218;2023-11-22T11:03:32;99815.59;;;16.65;37.16
18275;BME280;19470;49.322;7.218;2023-11-22T11:06:08;99808.13;;;16.94;38.08
18275;BME280;19470;49.322;7.218;2023-11-22T11:08:38;99809.31;;;16.00;38.61
18275;BME280;19470;49.322;7.218;2023-11-22T11:11:07;99816.13;;;16.34;38.46
18275;BME280;19470;49.322;7.218;2023-11-22T11:13:34;99807.69;;;18.02;36.84
18275;BME280;19470;49.322;7.218;2023-11-22T11:16:01;99815.34;;;16.93;37.02
18275;BME280;19470;49.322;7.218;2023-11-22T11:18:28;99824.69;;;16.36;39.19
18275;BME280;19470;49.322;7.218;2023-11-22T11:20:56;99812.09;;;18.28;36.82
18275;BME280;19470;49.322;7.218;2023-11-22T11:23:25;99823.53;;;17.51;36.28
18275;BME280;19470;49.322;7.218;2023-11-22T11:25:54;99812.50;;;17.42;37.77
18275;BME280;19470;49.322;7.218;2023-11-22T11:28:22;99811.03;;;20.27;33.98
18275;BME280;19470;49.322;7.218;2023-11-22T11:30:51;99818.28;;;16.92;37.87
18275;BME280;19470;49.322;7.218;2023-11-22T11:33:19;99812.19;;;19.00;35.08
18275;BME280;19470;49.322;7.218;2023-11-22T11:35:52;99809.72;;;18.47;36.33
18275;BME280;19470;49.322;7.218;2023-11-22T11:38:19;99817.78;;;17.74;37.45
18275;BME280;19470;49.322;7.218;2023-11-22T11:40:48;99826.34;;;16.97;37.97
18275;BME280;19470;49.322;7.218;2023-11-22T11:43:15;99819.16;;;18.90;35.58
18275;BME280;19470;49.322;7.218;2023-11-22T11:45:48;99828.56;;;18.73;36.64
18275;BME280;19470;49.322;7.218;2023-11-22T11:48:16;99818.53;;;18.27;36.10
18275;BME280;19470;49.322;7.218;2023-11-22T11:50:43;99826.28;;;19.92;33.76
18275;BME280;19470;49.322;7.218;2023-11-22T11:53:10;99833.25;;;18.25;34.60
18275;BME280;19470;49.322;7.218;2023-11-22T11:55:36;99837.81;;;18.24;36.78
18275;BME280;19470;49.322;7.218;2023-11-22T11:58:06;99839.03;;;18.79;36.92
18275;BME280;19470;49.322;7.218;2023-11-22T12:00:35;99830.22;;;20.10;34.31
18275;BME280;19470;49.322;7.218;2023-11-22T12:03:07;99823.31;;;19.88;33.57
18275;BME280;19470;49.322;7.218;2023-11-22T12:05:35;99823.25;;;21.56;31.84
18275;BME280;19470;49.322;7.218;2023-11-22T12:08:02;99827.19;;;18.65;35.27
18275;BME280;19470;49.322;7.218;2023-11-22T12:10:29;99825.34;;;18.86;34.93
18275;BME280;19470;49.322;7.218;2023-11-22T12:12:56;99832.84;;;19.35;34.14
18275;BME280;19470;49.322;7.218;2023-11-22T12:15:22;99839.34;;;18.00;36.18
18275;BME280;19470;49.322;7.218;2023-11-22T12:17:49;99826.41;;;19.26;34.76
18275;BME280;19470;49.322;7.218;2023-11-22T12:20:18;99819.88;;;19.78;35.00
18275;BME280;19470;49.322;7.218;2023-11-22T12:22:47;99813.50;;;19.48;35.10
18275;BME280;19470;49.322;7.218;2023-11-22T12:25:14;99812.34;;;18.22;36.35
18275;BME280;19470;49.322;7.218;2023-11-22T12:27:41;99815.88;;;19.50;33.30
18275;BME280;19470;49.322;7.218;2023-11-22T12:30:09;99802.59;;;20.43;32.97
18275;BME280;19470;49.322;7.218;2023-11-22T12:32:38;99805.94;;;17.70;35.88
18275;BME280;19470;49.322;7.218;2023-11-22T12:35:06;99800.94;;;18.82;36.03
18275;BME280;19470;49.322;7.218;2023-11-22T12:37:35;99788.50;;;20.62;32.47
18275;BME280;19470;49.322;7.218;2023-11-22T12:40:13;99791.81;;;19.99;32.91
18275;BME280;19470;49.322;7.218;2023-11-22T12:42:47;99797.03;;;20.74;31.75
18275;BME280;19470;49.322;7.218;2023-11-22T12:45:21;99789.78;;;20.70;32.25
18275;BME280;19470;49.322;7.218;2023-11-22T12:47:49;99772.97;;;19.19;33.98
18275;BME280;19470;49.322;7.218;2023-11-22T12:50:29;99767.19;;;19.77;33.88
18275;BME280;19470;49.322;7.218;2023-11-22T12:52:57;99774.03;;;18.62;34.73
18275;BME280;19470;49.322;7.218;2023-11-22T12:55:24;99775.13;;;18.61;35.15
18275;BME280;19470;49.322;7.218;2023-11-22T12:57:57;99791.59;;;19.85;32.81
18275;BME280;19470;49.322;7.218;2023-11-22T13:00:25;99788.41;;;20.33;33.00
18275;BME280;19470;49.322;7.218;2023-11-22T13:02:52;99796.34;;;20.04;32.45
18275;BME280;19470;49.322;7.218;2023-11-22T13:05:19;99807.78;;;19.75;33.22
18275;BME280;19470;49.322;7.218;2023-11-22T13:07:46;99822.06;;;16.96;36.10